Terminal Aerodrome Forecast
Issued by NWS

Home | Current Version | Previous Version | Text Only | Print | Product List | Glossary On
Versions: 1 2 3 4 5 6 7 8 9 10 11 12 13 14 15 16 17 18 19 20 21 22 23 24 25 26 27 28 29 30 31 32
000
FTUS41 KCTP 051744
TAFLNS
TAF
KLNS 051744Z 0518/0618 04008KT P6SM OVC025
     FM052000 02005KT P6SM BKN035
     FM060600 01007KT 5SM -SHRA BR OVC015
     FM061200 35012KT 2SM -SHRA BR OVC007=

USA.gov is the U.S. government's official web portal to all federal, state and local government web resources and services.